sensor_id;sensor_type;location;lat;lon;timestamp;pressure;altitude;pressure_sealevel;temperature;humidity
71976;BME280;68326;52.124;5.424;2023-10-09T00:02:11;102018.88;;;15.12;100.00
71976;BME280;68326;52.124;5.424;2023-10-09T00:04:39;102025.06;;;15.11;100.00
71976;BME280;68326;52.124;5.424;2023-10-09T00:07:09;102023.53;;;15.07;100.00
71976;BME280;68326;52.124;5.424;2023-10-09T00:09:37;102017.66;;;15.02;100.00
71976;BME280;68326;52.124;5.424;2023-10-09T00:12:22;102014.41;;;15.14;100.00
71976;BME280;68326;52.124;5.424;2023-10-09T00:14:51;102006.72;;;15.11;100.00
71976;BME280;68326;52.124;5.424;2023-10-09T00:17:23;102009.47;;;15.08;100.00
71976;BME280;68326;52.124;5.424;2023-10-09T00:19:50;102004.28;;;15.06;100.00
71976;BME280;68326;52.124;5.424;2023-10-09T00:22:26;102003.31;;;15.09;100.00
71976;BME280;68326;52.124;5.424;2023-10-09T00:24:53;102007.47;;;15.13;100.00
71976;BME280;68326;52.124;5.424;2023-10-09T00:27:42;101999.28;;;15.19;100.00
71976;BME280;68326;52.124;5.424;2023-10-09T00:30:11;102004.53;;;15.19;100.00
71976;BME280;68326;52.124;5.424;2023-10-09T00:32:42;102012.50;;;15.18;100.00
71976;BME280;68326;52.124;5.424;2023-10-09T00:35:41;102020.34;;;15.18;100.00
71976;BME280;68326;52.124;5.424;2023-10-09T00:38:10;102012.56;;;15.16;100.00
71976;BME280;68326;52.124;5.424;2023-10-09T00:40:50;102017.03;;;15.14;100.00
71976;BME280;68326;52.124;5.424;2023-10-09T00:43:30;102011.63;;;15.17;100.00
71976;BME280;68326;52.124;5.424;2023-10-09T00:45:59;102011.31;;;15.23;100.00
71976;BME280;68326;52.124;5.424;2023-10-09T00:48:30;102014.69;;;15.25;100.00
71976;BME280;68326;52.124;5.424;2023-10-09T00:50:57;102017.25;;;15.27;100.00
71976;BME280;68326;52.124;5.424;2023-10-09T00:53:27;102011.00;;;15.29;100.00
71976;BME280;68326;52.124;5.424;2023-10-09T00:56:01;102004.66;;;15.34;100.00
71976;BME280;68326;52.124;5.424;2023-10-09T00:58:47;101999.50;;;15.32;100.00
71976;BME280;68326;52.124;5.424;2023-10-09T01:01:25;101998.50;;;15.35;100.00
71976;BME280;68326;52.124;5.424;2023-10-09T01:04:04;102001.03;;;15.36;100.00
71976;BME280;68326;52.124;5.424;2023-10-09T01:06:46;101986.94;;;15.39;100.00
71976;BME280;68326;52.124;5.424;2023-10-09T01:09:32;101988.09;;;15.33;100.00
71976;BME280;68326;52.124;5.424;2023-10-09T01:27:48;101976.84;;;15.47;100.00
71976;BME280;68326;52.124;5.424;2023-10-09T01:30:15;101970.78;;;15.46;100.00
71976;BME280;68326;52.124;5.424;2023-10-09T01:32:41;101975.09;;;15.47;100.00
71976;BME280;68326;52.124;5.424;2023-10-09T01:35:11;101974.09;;;15.50;100.00
71976;BME280;68326;52.124;5.424;2023-10-09T01:37:46;101974.00;;;15.52;100.00
71976;BME280;68326;52.124;5.424;2023-10-09T01:40:17;101973.84;;;15.55;100.00
71976;BME280;68326;52.124;5.424;2023-10-09T01:43:03;101970.31;;;15.56;100.00
71976;BME280;68326;52.124;5.424;2023-10-09T01:45:30;101963.28;;;15.56;100.00
71976;BME280;68326;52.124;5.424;2023-10-09T01:48:08;101958.78;;;15.58;100.00
71976;BME280;68326;52.124;5.424;2023-10-09T01:50:35;101958.78;;;15.58;100.00
71976;BME280;68326;52.124;5.424;2023-10-09T01:53:03;101957.06;;;15.57;100.00
71976;BME280;68326;52.124;5.424;2023-10-09T01:55:32;101957.84;;;15.59;100.00
71976;BME280;68326;52.124;5.424;2023-10-09T01:58:06;101955.06;;;15.62;100.00
71976;BME280;68326;52.124;5.424;2023-10-09T02:00:49;101944.56;;;15.62;100.00
71976;BME280;68326;52.124;5.424;2023-10-09T02:03:20;101941.84;;;15.64;100.00
71976;BME280;68326;52.124;5.424;2023-10-09T02:05:51;101937.47;;;15.64;100.00
71976;BME280;68326;52.124;5.424;2023-10-09T02:08:20;101939.22;;;15.64;100.00
71976;BME280;68326;52.124;5.424;2023-10-09T02:10:53;101943.56;;;15.65;100.00
71976;BME280;68326;52.124;5.424;2023-10-09T02:13:22;101941.84;;;15.64;100.00
71976;BME280;68326;52.124;5.424;2023-10-09T02:15:56;101931.34;;;15.64;100.00
71976;BME280;68326;52.124;5.424;2023-10-09T02:18:40;101935.75;;;15.63;100.00
71976;BME280;68326;52.124;5.424;2023-10-09T02:21:18;101926.09;;;15.64;100.00
71976;BME280;68326;52.124;5.424;2023-10-09T02:24:03;101926.97;;;15.64;100.00
71976;BME280;68326;52.124;5.424;2023-10-09T02:26:50;101920.97;;;15.62;100.00
71976;BME280;68326;52.124;5.424;2023-10-09T02:29:19;101916.63;;;15.61;100.00
71976;BME280;68326;52.124;5.424;2023-10-09T02:31:50;101913.94;;;15.63;100.00
71976;BME280;68326;52.124;5.424;2023-10-09T02:34:27;101919.09;;;15.64;100.00
71976;BME280;68326;52.124;5.424;2023-10-09T02:36:54;101919.88;;;15.66;100.00
71976;BME280;68326;52.124;5.424;2023-10-09T02:39:24;101915.47;;;15.67;100.00
71976;BME280;68326;52.124;5.424;2023-10-09T02:41:55;101923.25;;;15.68;100.00
71976;BME280;68326;52.124;5.424;2023-10-09T02:44:28;101907.59;;;15.67;100.00
71976;BME280;68326;52.124;5.424;2023-10-09T02:46:58;101904.88;;;15.68;100.00
71976;BME280;68326;52.124;5.424;2023-10-09T02:49:25;101898.69;;;15.69;100.00
71976;BME280;68326;52.124;5.424;2023-10-09T02:51:54;101895.16;;;15.70;100.00
71976;BME280;68326;52.124;5.424;2023-10-09T02:54:21;101893.31;;;15.73;100.00
71976;BME280;68326;52.124;5.424;2023-10-09T02:56:50;101894.81;;;15.77;100.00
71976;BME280;68326;52.124;5.424;2023-10-09T02:59:33;101897.44;;;15.77;100.00
71976;BME280;68326;52.124;5.424;2023-10-09T03:02:00;101887.88;;;15.76;100.00
71976;BME280;68326;52.124;5.424;2023-10-09T03:04:26;101880.97;;;15.75;100.00
71976;BME280;68326;52.124;5.424;2023-10-09T03:06:58;101880.84;;;15.76;100.00
71976;BME280;68326;52.124;5.424;2023-10-09T03:09:25;101874.69;;;15.77;100.00
71976;BME280;68326;52.124;5.424;2023-10-09T03:11:57;101873.75;;;15.78;100.00
71976;BME280;68326;52.124;5.424;2023-10-09T03:14:36;101875.53;;;15.78;100.00
71976;BME280;68326;52.124;5.424;2023-10-09T03:17:05;101875.34;;;15.81;100.00
71976;BME280;68326;52.124;5.424;2023-10-09T03:19:34;101879.59;;;15.83;100.00
71976;BME280;68326;52.124;5.424;2023-10-09T03:22:05;101879.50;;;15.85;100.00
71976;BME280;68326;52.124;5.424;2023-10-09T03:24:39;101875.75;;;15.89;100.00
71976;BME280;68326;52.124;5.424;2023-10-09T03:27:16;101865.44;;;15.86;100.00
71976;BME280;68326;52.124;5.424;2023-10-09T03:29:42;101871.63;;;15.85;100.00
71976;BME280;68326;52.124;5.424;2023-10-09T03:32:15;101872.63;;;15.82;100.00
71976;BME280;68326;52.124;5.424;2023-10-09T03:34:42;101881.53;;;15.80;100.00
71976;BME280;68326;52.124;5.424;2023-10-09T03:37:10;101871.97;;;15.79;100.00
71976;BME280;68326;52.124;5.424;2023-10-09T03:39:48;101871.97;;;15.79;100.00
71976;BME280;68326;52.124;5.424;2023-10-09T03:42:18;101861.38;;;15.80;100.00
71976;BME280;68326;52.124;5.424;2023-10-09T03:44:49;101859.59;;;15.81;100.00
71976;BME280;68326;52.124;5.424;2023-10-09T03:47:20;101883.13;;;15.82;100.00
71976;BME280;68326;52.124;5.424;2023-10-09T03:49:51;101911.00;;;15.85;100.00
71976;BME280;68326;52.124;5.424;2023-10-09T03:52:20;101910.72;;;15.89;100.00
71976;BME280;68326;52.124;5.424;2023-10-09T03:54:46;101919.28;;;15.93;100.00
71976;BME280;68326;52.124;5.424;2023-10-09T03:57:13;101919.03;;;15.98;100.00
71976;BME280;68326;52.124;5.424;2023-10-09T03:59:47;101916.31;;;15.99;100.00
71976;BME280;68326;52.124;5.424;2023-10-09T04:02:14;101912.94;;;15.97;100.00
71976;BME280;68326;52.124;5.424;2023-10-09T04:04:42;101911.75;;;16.03;100.00
71976;BME280;68326;52.124;5.424;2023-10-09T04:07:14;101905.28;;;16.08;100.00
71976;BME280;68326;52.124;5.424;2023-10-09T04:09:44;101913.78;;;16.14;100.00
71976;BME280;68326;52.124;5.424;2023-10-09T04:12:14;101914.47;;;16.17;100.00
71976;BME280;68326;52.124;5.424;2023-10-09T04:14:47;101902.06;;;16.19;100.00
71976;BME280;68326;52.124;5.424;2023-10-09T04:17:21;101905.38;;;16.23;100.00
71976;BME280;68326;52.124;5.424;2023-10-09T04:19:51;101906.97;;;16.25;100.00
71976;BME280;68326;52.124;5.424;2023-10-09T04:22:37;101904.19;;;16.28;100.00
71976;BME280;68326;52.124;5.424;2023-10-09T04:25:17;101898.91;;;16.28;100.00
71976;BME280;68326;52.124;5.424;2023-10-09T04:27:56;101902.31;;;16.30;100.00
71976;BME280;68326;52.124;5.424;2023-10-09T04:30:41;101894.59;;;16.27;100.00
71976;BME280;68326;52.124;5.424;2023-10-09T04:33:13;101886.72;;;16.27;100.00
71976;BME280;68326;52.124;5.424;2023-10-09T04:36:08;101882.88;;;16.33;100.00
71976;BME280;68326;52.124;5.424;2023-10-09T04:38:42;101874.06;;;16.34;100.00
71976;BME280;68326;52.124;5.424;2023-10-09T04:41:27;101885.31;;;16.36;100.00
71976;BME280;68326;52.124;5.424;2023-10-09T04:43:54;101885.31;;;16.36;100.00
71976;BME280;68326;52.124;5.424;2023-10-09T04:46:41;101890.34;;;16.41;100.00
71976;BME280;68326;52.124;5.424;2023-10-09T04:49:10;101894.63;;;16.42;100.00
71976;BME280;68326;52.124;5.424;2023-10-09T04:52:03;101880.47;;;16.44;100.00
71976;BME280;68326;52.124;5.424;2023-10-09T04:54:44;101882.09;;;16.47;100.00
71976;BME280;68326;52.124;5.424;2023-10-09T04:57:30;101867.94;;;16.49;100.00
71976;BME280;68326;52.124;5.424;2023-10-09T05:00:05;101879.09;;;16.53;100.00
71976;BME280;68326;52.124;5.424;2023-10-09T05:03:02;101871.88;;;16.57;100.00
71976;BME280;68326;52.124;5.424;2023-10-09T05:05:40;101887.56;;;16.58;100.00
71976;BME280;68326;52.124;5.424;2023-10-09T05:11:00;101883.63;;;16.65;100.00
71976;BME280;68326;52.124;5.424;2023-10-09T05:13:32;101884.47;;;16.66;100.00
71976;BME280;68326;52.124;5.424;2023-10-09T05:18:55;101887.69;;;16.71;100.00
71976;BME280;68326;52.124;5.424;2023-10-09T05:21:36;101894.16;;;16.80;100.00
71976;BME280;68326;52.124;5.424;2023-10-09T05:24:12;101904.97;;;16.75;100.00
71976;BME280;68326;52.124;5.424;2023-10-09T05:26:47;101915.97;;;16.82;100.00
71976;BME280;68326;52.124;5.424;2023-10-09T05:29:18;101912.56;;;16.80;100.00
71976;BME280;68326;52.124;5.424;2023-10-09T05:32:05;101915.16;;;16.81;100.00
71976;BME280;68326;52.124;5.424;2023-10-09T05:34:42;101924.00;;;16.79;100.00
71976;BME280;68326;52.124;5.424;2023-10-09T05:37:30;101918.53;;;16.83;100.00
71976;BME280;68326;52.124;5.424;2023-10-09T05:40:05;101929.59;;;16.88;100.00
71976;BME280;68326;52.124;5.424;2023-10-09T05:42:45;101927.94;;;16.87;100.00
71976;BME280;68326;52.124;5.424;2023-10-09T05:45:17;101933.75;;;16.92;100.00
71976;BME280;68326;52.124;5.424;2023-10-09T05:47:48;101939.00;;;16.92;100.00
71976;BME280;68326;52.124;5.424;2023-10-09T05:50:30;101941.44;;;16.96;100.00
71976;BME280;68326;52.124;5.424;2023-10-09T05:53:01;101938.63;;;16.99;100.00
71976;BME280;68326;52.124;5.424;2023-10-09T05:55:29;101946.16;;;17.05;100.00
71976;BME280;68326;52.124;5.424;2023-10-09T05:58:15;101945.03;;;17.09;100.00
71976;BME280;68326;52.124;5.424;2023-10-09T06:01:19;101936.88;;;17.14;100.00
71976;BME280;68326;52.124;5.424;2023-10-09T06:04:04;101934.78;;;17.19;100.00
71976;BME280;68326;52.124;5.424;2023-10-09T06:06:42;101915.47;;;17.20;100.00
71976;BME280;68326;52.124;5.424;2023-10-09T06:09:13;101892.72;;;17.19;100.00
71976;BME280;68326;52.124;5.424;2023-10-09T06:11:48;101883.53;;;17.26;100.00
71976;BME280;68326;52.124;5.424;2023-10-09T06:14:21;101879.25;;;17.23;100.00
71976;BME280;68326;52.124;5.424;2023-10-09T06:16:52;101889.63;;;17.26;100.00
71976;BME280;68326;52.124;5.424;2023-10-09T06:19:48;101900.06;;;17.28;100.00
71976;BME280;68326;52.124;5.424;2023-10-09T06:22:15;101913.22;;;17.28;100.00
71976;BME280;68326;52.124;5.424;2023-10-09T06:25:16;101894.88;;;17.26;100.00
71976;BME280;68326;52.124;5.424;2023-10-09T06:27:44;101891.41;;;17.26;100.00
71976;BME280;68326;52.124;5.424;2023-10-09T06:30:23;101886.22;;;17.24;100.00
71976;BME280;68326;52.124;5.424;2023-10-09T06:32:51;101884.34;;;17.26;100.00
71976;BME280;68326;52.124;5.424;2023-10-09T06:35:36;101896.47;;;17.29;100.00
71976;BME280;68326;52.124;5.424;2023-10-09T06:38:03;101897.41;;;17.28;100.00
71976;BME280;68326;52.124;5.424;2023-10-09T06:40:32;101903.44;;;17.30;100.00
71976;BME280;68326;52.124;5.424;2023-10-09T06:43:08;101913.84;;;17.31;100.00
71976;BME280;68326;52.124;5.424;2023-10-09T06:45:44;101935.00;;;17.30;100.00
71976;BME280;68326;52.124;5.424;2023-10-09T06:48:12;101940.28;;;17.30;100.00
71976;BME280;68326;52.124;5.424;2023-10-09T06:51:01;101934.88;;;17.31;100.00
71976;BME280;68326;52.124;5.424;2023-10-09T06:53:47;101937.53;;;17.31;100.00
71976;BME280;68326;52.124;5.424;2023-10-09T06:56:13;101947.13;;;17.32;100.00
71976;BME280;68326;52.124;5.424;2023-10-09T06:59:04;101945.03;;;17.38;100.00
71976;BME280;68326;52.124;5.424;2023-10-09T07:01:42;101939.16;;;17.34;100.00
71976;BME280;68326;52.124;5.424;2023-10-09T07:04:10;101936.22;;;17.39;100.00
71976;BME280;68326;52.124;5.424;2023-10-09T07:07:07;101938.84;;;17.39;100.00
71976;BME280;68326;52.124;5.424;2023-10-09T07:09:39;101939.59;;;17.41;100.00
71976;BME280;68326;52.124;5.424;2023-10-09T07:12:10;101936.84;;;17.42;100.00
71976;BME280;68326;52.124;5.424;2023-10-09T07:14:40;101936.78;;;17.44;100.00
71976;BME280;68326;52.124;5.424;2023-10-09T07:17:08;101942.78;;;17.46;100.00
71976;BME280;68326;52.124;5.424;2023-10-09T07:19:54;101949.84;;;17.45;100.00
71976;BME280;68326;52.124;5.424;2023-10-09T07:22:21;101933.09;;;17.46;100.00
71976;BME280;68326;52.124;5.424;2023-10-09T07:24:52;101936.31;;;17.51;100.00
71976;BME280;68326;52.124;5.424;2023-10-09T07:27:39;101919.75;;;17.49;100.00
71976;BME280;68326;52.124;5.424;2023-10-09T07:30:15;101912.41;;;17.55;100.00
71976;BME280;68326;52.124;5.424;2023-10-09T07:33:03;101895.69;;;17.56;100.00
71976;BME280;68326;52.124;5.424;2023-10-09T07:35:42;101868.50;;;17.55;100.00
71976;BME280;68326;52.124;5.424;2023-10-09T07:40:41;101852.53;;;17.58;100.00
71976;BME280;68326;52.124;5.424;2023-10-09T07:43:31;101863.59;;;17.63;100.00
71976;BME280;68326;52.124;5.424;2023-10-09T07:46:06;101875.84;;;17.64;100.00
71976;BME280;68326;52.124;5.424;2023-10-09T07:48:56;101891.34;;;17.69;100.00
71976;BME280;68326;52.124;5.424;2023-10-09T07:51:24;101919.91;;;17.75;100.00
71976;BME280;68326;52.124;5.424;2023-10-09T07:53:58;101912.66;;;17.79;100.00
71976;BME280;68326;52.124;5.424;2023-10-09T07:56:39;101936.84;;;17.85;100.00
71976;BME280;68326;52.124;5.424;2023-10-09T07:59:10;101930.53;;;17.88;100.00
71976;BME280;68326;52.124;5.424;2023-10-09T08:01:42;101938.88;;;17.95;100.00
71976;BME280;68326;52.124;5.424;2023-10-09T08:04:26;101930.16;;;17.94;100.00
71976;BME280;68326;52.124;5.424;2023-10-09T08:07:08;101929.19;;;17.95;100.00
71976;BME280;68326;52.124;5.424;2023-10-09T08:09:55;101922.03;;;17.97;100.00
71976;BME280;68326;52.124;5.424;2023-10-09T08:12:42;101942.81;;;18.02;100.00
71976;BME280;68326;52.124;5.424;2023-10-09T08:15:12;101950.44;;;18.06;100.00
71976;BME280;68326;52.124;5.424;2023-10-09T08:17:57;101945.88;;;18.08;100.00
71976;BME280;68326;52.124;5.424;2023-10-09T08:20:37;101952.03;;;18.09;100.00
71976;BME280;68326;52.124;5.424;2023-10-09T08:23:25;101956.03;;;18.14;100.00
71976;BME280;68326;52.124;5.424;2023-10-09T08:26:16;101939.28;;;18.16;100.00
71976;BME280;68326;52.124;5.424;2023-10-09T08:28:56;101945.97;;;18.21;100.00
71976;BME280;68326;52.124;5.424;2023-10-09T08:31:45;101945.84;;;18.23;100.00
71976;BME280;68326;52.124;5.424;2023-10-09T08:34:13;101948.09;;;18.29;100.00
71976;BME280;68326;52.124;5.424;2023-10-09T08:37:20;101963.72;;;18.32;100.00
71976;BME280;68326;52.124;5.424;2023-10-09T08:39:51;101987.31;;;18.33;100.00
71976;BME280;68326;52.124;5.424;2023-10-09T08:42:18;101986.28;;;18.36;100.00
71976;BME280;68326;52.124;5.424;2023-10-09T08:44:45;101991.25;;;18.41;100.00
71976;BME280;68326;52.124;5.424;2023-10-09T08:47:15;101987.34;;;18.46;100.00
71976;BME280;68326;52.124;5.424;2023-10-09T08:49:42;101980.84;;;18.52;100.00
71976;BME280;68326;52.124;5.424;2023-10-09T08:52:09;101984.88;;;18.58;100.00
71976;BME280;68326;52.124;5.424;2023-10-09T08:54:37;101988.88;;;18.63;99.91
71976;BME280;68326;52.124;5.424;2023-10-09T08:57:03;101999.75;;;18.71;99.24
71976;BME280;68326;52.124;5.424;2023-10-09T08:59:40;102004.63;;;18.78;99.04
71976;BME280;68326;52.124;5.424;2023-10-09T09:02:12;101998.47;;;18.79;98.37
71976;BME280;68326;52.124;5.424;2023-10-09T09:04:40;101998.25;;;18.82;97.73
71976;BME280;68326;52.124;5.424;2023-10-09T09:07:27;102005.22;;;18.95;97.82
71976;BME280;68326;52.124;5.424;2023-10-09T09:10:05;101994.88;;;18.92;97.16
71976;BME280;68326;52.124;5.424;2023-10-09T09:12:48;102000.81;;;18.96;96.72
71976;BME280;68326;52.124;5.424;2023-10-09T09:15:27;102001.22;;;19.03;96.28
71976;BME280;68326;52.124;5.424;2023-10-09T09:18:07;101990.03;;;19.12;95.96
71976;BME280;68326;52.124;5.424;2023-10-09T09:20:37;102018.31;;;19.10;95.32
71976;BME280;68326;52.124;5.424;2023-10-09T09:23:09;102017.81;;;19.18;95.01
71976;BME280;68326;52.124;5.424;2023-10-09T09:25:45;102018.34;;;19.23;94.57
71976;BME280;68326;52.124;5.424;2023-10-09T09:28:15;102017.81;;;19.30;94.50
71976;BME280;68326;52.124;5.424;2023-10-09T09:30:47;102020.78;;;19.39;94.30
71976;BME280;68326;52.124;5.424;2023-10-09T09:36:10;102014.94;;;19.59;92.90
71976;BME280;68326;52.124;5.424;2023-10-09T09:38:40;102013.59;;;19.53;92.91
71976;BME280;68326;52.124;5.424;2023-10-09T09:41:17;102016.75;;;19.59;92.59
71976;BME280;68326;52.124;5.424;2023-10-09T09:43:56;102020.03;;;19.62;92.46
71976;BME280;68326;52.124;5.424;2023-10-09T09:46:23;102012.19;;;19.61;92.50
71976;BME280;68326;52.124;5.424;2023-10-09T09:49:06;102012.44;;;19.70;92.08
71976;BME280;68326;52.124;5.424;2023-10-09T09:51:43;102008.06;;;19.69;91.80
71976;BME280;68326;52.124;5.424;2023-10-09T09:54:13;102013.06;;;19.74;90.99
71976;BME280;68326;52.124;5.424;2023-10-09T09:56:45;102017.31;;;19.77;90.60
71976;BME280;68326;52.124;5.424;2023-10-09T09:59:18;102012.84;;;19.77;91.30
71976;BME280;68326;52.124;5.424;2023-10-09T10:01:50;102014.31;;;19.81;91.43
71976;BME280;68326;52.124;5.424;2023-10-09T10:04:29;102016.53;;;19.87;91.67
71976;BME280;68326;52.124;5.424;2023-10-09T10:07:02;102013.91;;;19.87;90.57
71976;BME280;68326;52.124;5.424;2023-10-09T10:12:08;102011.03;;;19.90;91.41
71976;BME280;68326;52.124;5.424;2023-10-09T10:14:58;102011.63;;;20.07;91.95
71976;BME280;68326;52.124;5.424;2023-10-09T10:20:25;102007.41;;;20.04;91.61
71976;BME280;68326;52.124;5.424;2023-10-09T10:23:17;102008.41;;;20.14;90.89
71976;BME280;68326;52.124;5.424;2023-10-09T10:25:46;102017.75;;;20.07;90.31
71976;BME280;68326;52.124;5.424;2023-10-09T10:30:46;102025.72;;;20.19;91.19
71976;BME280;68326;52.124;5.424;2023-10-09T10:33:12;102032.00;;;20.17;91.65
71976;BME280;68326;52.124;5.424;2023-10-09T10:35:42;102036.31;;;20.19;90.12
71976;BME280;68326;52.124;5.424;2023-10-09T10:38:32;102038.31;;;20.28;90.16
71976;BME280;68326;52.124;5.424;2023-10-09T10:41:14;102033.75;;;20.30;90.99
71976;BME280;68326;52.124;5.424;2023-10-09T10:43:45;102031.22;;;20.28;90.20
71976;BME280;68326;52.124;5.424;2023-10-09T10:46:15;102033.50;;;20.33;88.71
71976;BME280;68326;52.124;5.424;2023-10-09T10:48:42;102038.59;;;20.36;90.19
71976;BME280;68326;52.124;5.424;2023-10-09T10:51:14;102035.59;;;20.41;88.65
71976;BME280;68326;52.124;5.424;2023-10-09T10:53:53;102031.78;;;20.45;87.93
71976;BME280;68326;52.124;5.424;2023-10-09T10:56:24;102032.34;;;20.37;87.29
71976;BME280;68326;52.124;5.424;2023-10-09T10:59:01;102033.16;;;20.37;86.83
71976;BME280;68326;52.124;5.424;2023-10-09T11:01:32;102032.81;;;20.42;85.73
71976;BME280;68326;52.124;5.424;2023-10-09T11:04:22;102032.63;;;20.45;85.99
71976;BME280;68326;52.124;5.424;2023-10-09T11:06:51;102039.47;;;20.48;85.83
71976;BME280;68326;52.124;5.424;2023-10-09T11:09:18;102040.84;;;20.53;84.47
71976;BME280;68326;52.124;5.424;2023-10-09T11:11:49;102029.28;;;20.54;83.49
71976;BME280;68326;52.124;5.424;2023-10-09T11:14:16;102019.69;;;20.53;83.92
71976;BME280;68326;52.124;5.424;2023-10-09T11:16:50;102021.19;;;20.58;84.04
71976;BME280;68326;52.124;5.424;2023-10-09T11:19:21;102024.69;;;20.69;83.28
71976;BME280;68326;52.124;5.424;2023-10-09T11:21:55;102027.59;;;20.66;82.14
71976;BME280;68326;52.124;5.424;2023-10-09T11:24:34;102023.03;;;20.68;83.34
71976;BME280;68326;52.124;5.424;2023-10-09T11:27:02;102030.38;;;20.76;82.47
71976;BME280;68326;52.124;5.424;2023-10-09T11:29:33;102031.34;;;20.75;81.73
71976;BME280;68326;52.124;5.424;2023-10-09T11:32:15;102036.38;;;20.78;81.78
71976;BME280;68326;52.124;5.424;2023-10-09T11:34:49;102037.75;;;20.84;82.20
71976;BME280;68326;52.124;5.424;2023-10-09T11:37:22;102029.78;;;20.72;80.54
71976;BME280;68326;52.124;5.424;2023-10-09T11:39:55;102031.56;;;20.72;80.31
71976;BME280;68326;52.124;5.424;2023-10-09T11:42:27;102029.53;;;20.75;80.95
71976;BME280;68326;52.124;5.424;2023-10-09T11:45:23;102022.13;;;20.81;81.59
71976;BME280;68326;52.124;5.424;2023-10-09T11:47:52;102028.34;;;20.80;81.52
71976;BME280;68326;52.124;5.424;2023-10-09T11:50:45;102023.22;;;20.89;82.39
71976;BME280;68326;52.124;5.424;2023-10-09T11:53:44;102030.81;;;20.94;81.93
71976;BME280;68326;52.124;5.424;2023-10-09T11:56:12;102030.44;;;20.87;81.42
71976;BME280;68326;52.124;5.424;2023-10-09T11:58:49;102029.34;;;20.90;82.17
71976;BME280;68326;52.124;5.424;2023-10-09T12:01:19;102036.81;;;20.85;82.54
71976;BME280;68326;52.124;5.424;2023-10-09T12:03:50;102031.63;;;20.83;81.46
71976;BME280;68326;52.124;5.424;2023-10-09T12:06:18;102023.50;;;20.73;84.07
71976;BME280;68326;52.124;5.424;2023-10-09T12:08:46;102020.03;;;20.73;82.24
71976;BME280;68326;52.124;5.424;2023-10-09T12:11:16;102006.06;;;20.71;83.41
71976;BME280;68326;52.124;5.424;2023-10-09T12:13:50;102015.94;;;20.80;83.83
71976;BME280;68326;52.124;5.424;2023-10-09T12:16:23;102014.03;;;20.82;82.78
71976;BME280;68326;52.124;5.424;2023-10-09T12:18:55;102020.19;;;20.83;83.22
71976;BME280;68326;52.124;5.424;2023-10-09T12:21:23;102014.66;;;20.86;83.00
71976;BME280;68326;52.124;5.424;2023-10-09T12:23:50;102006.69;;;20.74;82.97
71976;BME280;68326;52.124;5.424;2023-10-09T12:26:16;102004.16;;;20.73;84.43
71976;BME280;68326;52.124;5.424;2023-10-09T12:28:44;102011.59;;;20.68;83.01
71976;BME280;68326;52.124;5.424;2023-10-09T12:31:13;102006.88;;;20.60;83.79
71976;BME280;68326;52.124;5.424;2023-10-09T12:33:47;102004.34;;;20.59;84.15
71976;BME280;68326;52.124;5.424;2023-10-09T12:36:16;102003.56;;;20.56;83.95
71976;BME280;68326;52.124;5.424;2023-10-09T12:38:48;101999.38;;;20.54;85.18
71976;BME280;68326;52.124;5.424;2023-10-09T12:41:25;102014.28;;;20.55;84.79
71976;BME280;68326;52.124;5.424;2023-10-09T12:43:55;102016.78;;;20.56;85.41
71976;BME280;68326;52.124;5.424;2023-10-09T12:46:28;102009.53;;;20.60;85.60
71976;BME280;68326;52.124;5.424;2023-10-09T12:48:59;102010.97;;;20.64;84.71
71976;BME280;68326;52.124;5.424;2023-10-09T12:51:27;102017.84;;;20.67;84.48
71976;BME280;68326;52.124;5.424;2023-10-09T12:53:57;102019.84;;;20.63;85.28
71976;BME280;68326;52.124;5.424;2023-10-09T12:56:24;102017.00;;;20.66;85.42
71976;BME280;68326;52.124;5.424;2023-10-09T12:59:09;102016.91;;;20.68;84.79
71976;BME280;68326;52.124;5.424;2023-10-09T13:01:41;102018.91;;;20.64;84.40
71976;BME280;68326;52.124;5.424;2023-10-09T13:04:14;102022.28;;;20.66;84.38
71976;BME280;68326;52.124;5.424;2023-10-09T13:06:45;102027.06;;;20.61;83.69
71976;BME280;68326;52.124;5.424;2023-10-09T13:09:15;102024.00;;;20.54;84.66
71976;BME280;68326;52.124;5.424;2023-10-09T13:11:43;102031.34;;;20.51;84.14
71976;BME280;68326;52.124;5.424;2023-10-09T13:14:10;102028.91;;;20.48;84.59
71976;BME280;68326;52.124;5.424;2023-10-09T13:16:44;102027.22;;;20.47;85.18
71976;BME280;68326;52.124;5.424;2023-10-09T13:19:11;102033.34;;;20.47;85.55
71976;BME280;68326;52.124;5.424;2023-10-09T13:21:38;102025.31;;;20.49;85.58
71976;BME280;68326;52.124;5.424;2023-10-09T13:24:09;102021.06;;;20.46;85.66
71976;BME280;68326;52.124;5.424;2023-10-09T13:26:50;102024.59;;;20.47;85.40
71976;BME280;68326;52.124;5.424;2023-10-09T13:29:18;102024.59;;;20.47;85.84
71976;BME280;68326;52.124;5.424;2023-10-09T13:31:51;102032.72;;;20.44;84.65
71976;BME280;68326;52.124;5.424;2023-10-09T13:34:24;102031.06;;;20.43;84.66
71976;BME280;68326;52.124;5.424;2023-10-09T13:36:54;102026.84;;;20.40;84.37
71976;BME280;68326;52.124;5.424;2023-10-09T13:39:22;102030.31;;;20.41;84.46
71976;BME280;68326;52.124;5.424;2023-10-09T13:41:56;102024.06;;;20.42;85.16
71976;BME280;68326;52.124;5.424;2023-10-09T13:44:28;102024.28;;;20.39;84.33
71976;BME280;68326;52.124;5.424;2023-10-09T13:46:56;102026.09;;;20.38;85.20
71976;BME280;68326;52.124;5.424;2023-10-09T13:49:23;102019.22;;;20.35;85.12
71976;BME280;68326;52.124;5.424;2023-10-09T13:51:56;102030.31;;;20.41;84.43
71976;BME280;68326;52.124;5.424;2023-10-09T13:54:23;102030.31;;;20.41;84.24
71976;BME280;68326;52.124;5.424;2023-10-09T13:57:06;102019.13;;;20.37;83.93